Terminal Aerodrome Forecast
Issued by NWS Chicago, IL

Home | Current Version | Previous Version | Text Only | Print | Product List | Glossary Off
Versions: 1 2 3 4 5 6 7 8 9 10 11 12 13 14 15 16 17 18 19 20 21 22 23 24 25 26 27 28 29 30 31 32 33 34

576
FTUS43 KLOT 210906 AAA
TAFRFD
TAF AMD
KRFD 210906Z 2109/2206 12006KT 3/4SM BR OVC003
      TEMPO 2109/2112 1/4SM -DZ FG VV002
     FM211300 16009KT 1SM BR OVC004
     FM211500 17011KT 5SM BR BKN007 OVC015
     FM211700 18012G18KT P6SM BKN020
     FM220000 18006KT 5SM BR SCT007 BKN015
     FM220300 VRB03KT 2SM BR SCT004 BKN008=

USA.gov is the U.S. government's official web portal to all federal, state and local government web resources and services.